sensor_id;sensor_type;location;lat;lon;timestamp;temperature;humidity
10660;DHT22;5378;53.206;13.316;2023-09-08T00:01:33;17.40;99.90
10660;DHT22;5378;53.206;13.316;2023-09-08T00:04:21;17.30;99.90
10660;DHT22;5378;53.206;13.316;2023-09-08T00:07:08;17.30;99.90
10660;DHT22;5378;53.206;13.316;2023-09-08T00:09:55;17.20;99.90
10660;DHT22;5378;53.206;13.316;2023-09-08T00:12:43;17.20;99.90
10660;DHT22;5378;53.206;13.316;2023-09-08T00:15:30;17.20;99.90
10660;DHT22;5378;53.206;13.316;2023-09-08T00:18:17;17.20;99.90
10660;DHT22;5378;53.206;13.316;2023-09-08T00:21:05;17.20;99.90
10660;DHT22;5378;53.206;13.316;2023-09-08T00:23:53;17.10;99.90
10660;DHT22;5378;53.206;13.316;2023-09-08T00:26:40;17.10;99.90
10660;DHT22;5378;53.206;13.316;2023-09-08T00:29:27;17.10;99.90
10660;DHT22;5378;53.206;13.316;2023-09-08T00:32:14;17.00;99.90
10660;DHT22;5378;53.206;13.316;2023-09-08T00:35:02;17.10;99.90
10660;DHT22;5378;53.206;13.316;2023-09-08T00:37:51;17.00;99.90
10660;DHT22;5378;53.206;13.316;2023-09-08T00:40:38;17.00;99.90
10660;DHT22;5378;53.206;13.316;2023-09-08T00:43:25;17.10;99.90
10660;DHT22;5378;53.206;13.316;2023-09-08T00:46:12;17.00;99.90
10660;DHT22;5378;53.206;13.316;2023-09-08T00:49:00;17.00;99.90
10660;DHT22;5378;53.206;13.316;2023-09-08T00:51:47;16.90;99.90
10660;DHT22;5378;53.206;13.316;2023-09-08T00:54:36;16.90;99.90
10660;DHT22;5378;53.206;13.316;2023-09-08T00:57:23;16.90;99.90
10660;DHT22;5378;53.206;13.316;2023-09-08T01:00:11;16.90;99.90
10660;DHT22;5378;53.206;13.316;2023-09-08T01:02:59;16.90;99.90
10660;DHT22;5378;53.206;13.316;2023-09-08T01:05:47;16.80;99.90
10660;DHT22;5378;53.206;13.316;2023-09-08T01:08:34;16.70;99.90
10660;DHT22;5378;53.206;13.316;2023-09-08T01:11:24;16.70;99.90
10660;DHT22;5378;53.206;13.316;2023-09-08T01:14:13;16.60;99.90
10660;DHT22;5378;53.206;13.316;2023-09-08T01:17:00;16.60;99.90
10660;DHT22;5378;53.206;13.316;2023-09-08T01:19:49;16.70;99.90
10660;DHT22;5378;53.206;13.316;2023-09-08T01:22:50;16.70;99.90
10660;DHT22;5378;53.206;13.316;2023-09-08T01:25:46;16.70;99.90
10660;DHT22;5378;53.206;13.316;2023-09-08T01:28:37;16.70;99.90
10660;DHT22;5378;53.206;13.316;2023-09-08T01:31:25;16.60;99.90
10660;DHT22;5378;53.206;13.316;2023-09-08T01:34:13;16.60;99.90
10660;DHT22;5378;53.206;13.316;2023-09-08T01:37:00;16.60;99.90
10660;DHT22;5378;53.206;13.316;2023-09-08T01:39:49;16.60;99.90
10660;DHT22;5378;53.206;13.316;2023-09-08T01:42:39;16.50;99.90
10660;DHT22;5378;53.206;13.316;2023-09-08T01:45:26;16.50;99.90
10660;DHT22;5378;53.206;13.316;2023-09-08T01:48:13;16.50;99.90
10660;DHT22;5378;53.206;13.316;2023-09-08T01:51:00;16.50;99.90
10660;DHT22;5378;53.206;13.316;2023-09-08T01:53:47;16.40;99.90
10660;DHT22;5378;53.206;13.316;2023-09-08T01:56:34;16.50;99.90
10660;DHT22;5378;53.206;13.316;2023-09-08T01:59:22;16.50;99.90
10660;DHT22;5378;53.206;13.316;2023-09-08T02:02:09;16.50;99.90
10660;DHT22;5378;53.206;13.316;2023-09-08T02:04:56;16.50;99.90
10660;DHT22;5378;53.206;13.316;2023-09-08T02:07:44;16.50;99.90
10660;DHT22;5378;53.206;13.316;2023-09-08T02:10:30;16.50;99.90
10660;DHT22;5378;53.206;13.316;2023-09-08T02:13:17;16.50;99.90
10660;DHT22;5378;53.206;13.316;2023-09-08T02:16:06;16.40;99.90
10660;DHT22;5378;53.206;13.316;2023-09-08T02:18:53;16.40;99.90
10660;DHT22;5378;53.206;13.316;2023-09-08T02:21:40;16.30;99.90
10660;DHT22;5378;53.206;13.316;2023-09-08T02:24:27;16.40;99.90
10660;DHT22;5378;53.206;13.316;2023-09-08T02:27:14;16.30;99.90
10660;DHT22;5378;53.206;13.316;2023-09-08T02:30:02;16.30;99.90
10660;DHT22;5378;53.206;13.316;2023-09-08T02:32:51;16.30;99.90
10660;DHT22;5378;53.206;13.316;2023-09-08T02:35:38;16.20;99.90
10660;DHT22;5378;53.206;13.316;2023-09-08T02:38:27;16.20;99.90
10660;DHT22;5378;53.206;13.316;2023-09-08T02:41:14;16.20;99.90
10660;DHT22;5378;53.206;13.316;2023-09-08T02:44:02;16.20;99.90
10660;DHT22;5378;53.206;13.316;2023-09-08T02:46:49;16.20;99.90
10660;DHT22;5378;53.206;13.316;2023-09-08T02:49:38;16.20;99.90
10660;DHT22;5378;53.206;13.316;2023-09-08T02:52:25;16.10;99.90
10660;DHT22;5378;53.206;13.316;2023-09-08T02:55:12;16.20;99.90
10660;DHT22;5378;53.206;13.316;2023-09-08T02:58:00;16.20;99.90
10660;DHT22;5378;53.206;13.316;2023-09-08T03:00:47;16.20;99.90
10660;DHT22;5378;53.206;13.316;2023-09-08T03:03:34;16.10;99.90
10660;DHT22;5378;53.206;13.316;2023-09-08T03:06:22;16.10;99.90
10660;DHT22;5378;53.206;13.316;2023-09-08T03:09:10;16.10;99.90
10660;DHT22;5378;53.206;13.316;2023-09-08T03:11:57;16.10;99.90
10660;DHT22;5378;53.206;13.316;2023-09-08T03:14:44;16.00;99.90
10660;DHT22;5378;53.206;13.316;2023-09-08T03:17:31;16.10;99.90
10660;DHT22;5378;53.206;13.316;2023-09-08T03:20:18;16.10;99.90
10660;DHT22;5378;53.206;13.316;2023-09-08T03:23:07;16.00;99.90
10660;DHT22;5378;53.206;13.316;2023-09-08T03:25:54;16.10;99.90
10660;DHT22;5378;53.206;13.316;2023-09-08T03:28:42;16.10;99.90
10660;DHT22;5378;53.206;13.316;2023-09-08T03:31:29;16.00;99.90
10660;DHT22;5378;53.206;13.316;2023-09-08T03:34:17;16.00;99.90
10660;DHT22;5378;53.206;13.316;2023-09-08T03:37:06;16.00;99.90
10660;DHT22;5378;53.206;13.316;2023-09-08T03:39:55;15.90;99.90
10660;DHT22;5378;53.206;13.316;2023-09-08T03:42:42;16.00;99.90
10660;DHT22;5378;53.206;13.316;2023-09-08T03:45:29;16.00;99.90
10660;DHT22;5378;53.206;13.316;2023-09-08T03:48:16;15.90;99.90
10660;DHT22;5378;53.206;13.316;2023-09-08T03:51:03;15.90;99.90
10660;DHT22;5378;53.206;13.316;2023-09-08T03:53:51;15.80;99.90
10660;DHT22;5378;53.206;13.316;2023-09-08T03:56:39;15.80;99.90
10660;DHT22;5378;53.206;13.316;2023-09-08T03:59:26;15.80;99.90
10660;DHT22;5378;53.206;13.316;2023-09-08T04:02:13;15.80;99.90
10660;DHT22;5378;53.206;13.316;2023-09-08T04:05:00;15.80;99.90
10660;DHT22;5378;53.206;13.316;2023-09-08T04:07:48;15.80;99.90
10660;DHT22;5378;53.206;13.316;2023-09-08T04:10:36;15.80;99.90
10660;DHT22;5378;53.206;13.316;2023-09-08T04:13:24;15.70;99.90
10660;DHT22;5378;53.206;13.316;2023-09-08T04:16:12;15.60;99.90
10660;DHT22;5378;53.206;13.316;2023-09-08T04:18:58;15.60;99.90
10660;DHT22;5378;53.206;13.316;2023-09-08T04:21:45;15.50;99.90
10660;DHT22;5378;53.206;13.316;2023-09-08T04:24:35;15.50;99.90
10660;DHT22;5378;53.206;13.316;2023-09-08T04:27:22;15.60;99.90
10660;DHT22;5378;53.206;13.316;2023-09-08T04:30:13;15.60;99.90
10660;DHT22;5378;53.206;13.316;2023-09-08T04:33:00;15.60;99.90
10660;DHT22;5378;53.206;13.316;2023-09-08T04:35:47;15.60;99.90
10660;DHT22;5378;53.206;13.316;2023-09-08T04:38:34;15.70;99.90
10660;DHT22;5378;53.206;13.316;2023-09-08T04:41:22;15.60;99.90
10660;DHT22;5378;53.206;13.316;2023-09-08T04:44:09;15.70;99.90
10660;DHT22;5378;53.206;13.316;2023-09-08T04:46:58;15.70;99.90
10660;DHT22;5378;53.206;13.316;2023-09-08T04:49:46;15.60;99.90
10660;DHT22;5378;53.206;13.316;2023-09-08T04:52:34;15.60;99.90
10660;DHT22;5378;53.206;13.316;2023-09-08T04:55:22;15.60;99.90
10660;DHT22;5378;53.206;13.316;2023-09-08T04:58:09;15.70;99.90
10660;DHT22;5378;53.206;13.316;2023-09-08T05:00:56;15.80;99.90
10660;DHT22;5378;53.206;13.316;2023-09-08T05:03:44;15.90;99.90
10660;DHT22;5378;53.206;13.316;2023-09-08T05:06:31;16.00;99.90
10660;DHT22;5378;53.206;13.316;2023-09-08T05:09:18;16.00;99.90
10660;DHT22;5378;53.206;13.316;2023-09-08T05:12:06;16.10;99.90
10660;DHT22;5378;53.206;13.316;2023-09-08T05:14:54;16.20;99.90
10660;DHT22;5378;53.206;13.316;2023-09-08T05:17:47;16.20;99.90
10660;DHT22;5378;53.206;13.316;2023-09-08T05:20:38;16.20;99.90
10660;DHT22;5378;53.206;13.316;2023-09-08T05:23:25;16.30;99.90
10660;DHT22;5378;53.206;13.316;2023-09-08T05:26:12;16.40;99.90
10660;DHT22;5378;53.206;13.316;2023-09-08T05:29:00;16.50;99.90
10660;DHT22;5378;53.206;13.316;2023-09-08T05:31:47;16.50;99.90
10660;DHT22;5378;53.206;13.316;2023-09-08T05:34:35;16.60;99.90
10660;DHT22;5378;53.206;13.316;2023-09-08T05:37:24;16.70;99.90
10660;DHT22;5378;53.206;13.316;2023-09-08T05:40:11;16.80;99.90
10660;DHT22;5378;53.206;13.316;2023-09-08T05:42:59;16.90;99.90
10660;DHT22;5378;53.206;13.316;2023-09-08T05:45:46;17.10;99.90
10660;DHT22;5378;53.206;13.316;2023-09-08T05:48:33;17.40;99.90
10660;DHT22;5378;53.206;13.316;2023-09-08T05:51:20;18.00;99.90
10660;DHT22;5378;53.206;13.316;2023-09-08T05:54:10;18.70;99.90
10660;DHT22;5378;53.206;13.316;2023-09-08T05:56:57;18.70;99.90
10660;DHT22;5378;53.206;13.316;2023-09-08T05:59:45;18.60;99.90
10660;DHT22;5378;53.206;13.316;2023-09-08T06:02:32;18.80;99.90
10660;DHT22;5378;53.206;13.316;2023-09-08T06:05:19;18.80;99.90
10660;DHT22;5378;53.206;13.316;2023-09-08T06:08:06;18.70;99.90
10660;DHT22;5378;53.206;13.316;2023-09-08T06:10:59;18.50;99.90
10660;DHT22;5378;53.206;13.316;2023-09-08T06:13:46;18.40;99.90
10660;DHT22;5378;53.206;13.316;2023-09-08T06:16:33;18.50;99.90
10660;DHT22;5378;53.206;13.316;2023-09-08T06:19:21;18.90;99.90
10660;DHT22;5378;53.206;13.316;2023-09-08T06:22:09;20.80;99.90
10660;DHT22;5378;53.206;13.316;2023-09-08T06:24:56;23.20;99.90
10660;DHT22;5378;53.206;13.316;2023-09-08T06:27:44;25.60;99.90
10660;DHT22;5378;53.206;13.316;2023-09-08T06:30:31;27.40;99.90
10660;DHT22;5378;53.206;13.316;2023-09-08T06:33:20;28.80;99.90
10660;DHT22;5378;53.206;13.316;2023-09-08T06:36:09;29.60;99.90
10660;DHT22;5378;53.206;13.316;2023-09-08T06:38:56;30.20;99.90
10660;DHT22;5378;53.206;13.316;2023-09-08T06:41:43;30.70;99.90
10660;DHT22;5378;53.206;13.316;2023-09-08T06:44:34;31.00;99.90
10660;DHT22;5378;53.206;13.316;2023-09-08T06:47:22;31.40;99.90
10660;DHT22;5378;53.206;13.316;2023-09-08T06:50:10;31.70;99.90
10660;DHT22;5378;53.206;13.316;2023-09-08T06:52:57;31.90;99.90
10660;DHT22;5378;53.206;13.316;2023-09-08T06:55:46;32.30;99.90
10660;DHT22;5378;53.206;13.316;2023-09-08T06:58:33;32.50;99.80
10660;DHT22;5378;53.206;13.316;2023-09-08T07:01:22;32.60;98.30
10660;DHT22;5378;53.206;13.316;2023-09-08T07:04:09;32.40;98.60
10660;DHT22;5378;53.206;13.316;2023-09-08T07:06:58;32.10;96.90
10660;DHT22;5378;53.206;13.316;2023-09-08T07:09:49;31.70;99.40
10660;DHT22;5378;53.206;13.316;2023-09-08T07:12:37;31.10;99.90
10660;DHT22;5378;53.206;13.316;2023-09-08T07:15:24;30.80;99.50
10660;DHT22;5378;53.206;13.316;2023-09-08T07:18:12;30.20;99.90
10660;DHT22;5378;53.206;13.316;2023-09-08T07:20:59;29.60;99.90
10660;DHT22;5378;53.206;13.316;2023-09-08T07:23:46;29.90;99.90
10660;DHT22;5378;53.206;13.316;2023-09-08T07:26:34;30.50;99.90
10660;DHT22;5378;53.206;13.316;2023-09-08T07:29:21;31.10;99.70
10660;DHT22;5378;53.206;13.316;2023-09-08T07:32:08;31.40;97.90
10660;DHT22;5378;53.206;13.316;2023-09-08T07:34:58;31.90;99.40
10660;DHT22;5378;53.206;13.316;2023-09-08T07:37:45;32.00;95.50
10660;DHT22;5378;53.206;13.316;2023-09-08T07:40:32;32.10;96.00
10660;DHT22;5378;53.206;13.316;2023-09-08T07:43:19;32.20;96.70
10660;DHT22;5378;53.206;13.316;2023-09-08T07:46:07;32.20;95.20
10660;DHT22;5378;53.206;13.316;2023-09-08T07:48:54;32.30;94.20
10660;DHT22;5378;53.206;13.316;2023-09-08T07:51:42;32.40;96.80
10660;DHT22;5378;53.206;13.316;2023-09-08T07:54:29;32.70;94.10
10660;DHT22;5378;53.206;13.316;2023-09-08T07:57:16;32.70;93.80
10660;DHT22;5378;53.206;13.316;2023-09-08T08:00:05;32.20;93.40
10660;DHT22;5378;53.206;13.316;2023-09-08T08:02:57;32.20;93.60
10660;DHT22;5378;53.206;13.316;2023-09-08T08:05:45;32.30;96.00
10660;DHT22;5378;53.206;13.316;2023-09-08T08:08:33;32.70;93.70
10660;DHT22;5378;53.206;13.316;2023-09-08T08:11:24;32.60;94.40
10660;DHT22;5378;53.206;13.316;2023-09-08T08:14:11;32.80;92.70
10660;DHT22;5378;53.206;13.316;2023-09-08T08:16:59;32.80;93.90
10660;DHT22;5378;53.206;13.316;2023-09-08T08:19:46;32.80;93.40
10660;DHT22;5378;53.206;13.316;2023-09-08T08:22:34;32.50;93.00
10660;DHT22;5378;53.206;13.316;2023-09-08T08:25:22;32.20;93.20
10660;DHT22;5378;53.206;13.316;2023-09-08T08:28:10;32.30;93.60
10660;DHT22;5378;53.206;13.316;2023-09-08T08:30:57;32.80;97.10
10660;DHT22;5378;53.206;13.316;2023-09-08T08:33:44;33.60;96.50
10660;DHT22;5378;53.206;13.316;2023-09-08T08:36:31;34.00;90.90
10660;DHT22;5378;53.206;13.316;2023-09-08T08:39:18;33.30;92.50
10660;DHT22;5378;53.206;13.316;2023-09-08T08:42:10;33.00;91.60
10660;DHT22;5378;53.206;13.316;2023-09-08T08:44:58;32.80;93.70
10660;DHT22;5378;53.206;13.316;2023-09-08T08:47:46;33.30;95.90
10660;DHT22;5378;53.206;13.316;2023-09-08T08:50:34;33.60;92.20
10660;DHT22;5378;53.206;13.316;2023-09-08T08:53:21;33.90;91.70
10660;DHT22;5378;53.206;13.316;2023-09-08T08:56:09;33.80;91.90
10660;DHT22;5378;53.206;13.316;2023-09-08T08:58:58;34.20;93.10
10660;DHT22;5378;53.206;13.316;2023-09-08T09:01:48;34.30;91.90
10660;DHT22;5378;53.206;13.316;2023-09-08T09:04:37;33.90;89.20
10660;DHT22;5378;53.206;13.316;2023-09-08T09:07:25;33.50;91.30
10660;DHT22;5378;53.206;13.316;2023-09-08T09:10:13;33.20;90.30
10660;DHT22;5378;53.206;13.316;2023-09-08T09:13:00;33.00;91.60
10660;DHT22;5378;53.206;13.316;2023-09-08T09:15:50;32.60;90.20
10660;DHT22;5378;53.206;13.316;2023-09-08T09:18:53;32.70;91.90
10660;DHT22;5378;53.206;13.316;2023-09-08T09:21:42;32.60;92.90
10660;DHT22;5378;53.206;13.316;2023-09-08T09:24:32;32.60;91.20
10660;DHT22;5378;53.206;13.316;2023-09-08T09:27:21;32.80;92.60
10660;DHT22;5378;53.206;13.316;2023-09-08T09:30:09;32.80;90.70
10660;DHT22;5378;53.206;13.316;2023-09-08T09:33:03;32.60;93.20
10660;DHT22;5378;53.206;13.316;2023-09-08T09:35:52;32.10;93.60
10660;DHT22;5378;53.206;13.316;2023-09-08T09:38:39;31.30;92.80
10660;DHT22;5378;53.206;13.316;2023-09-08T09:41:28;30.10;93.10
10660;DHT22;5378;53.206;13.316;2023-09-08T09:44:16;29.40;94.60
10660;DHT22;5378;53.206;13.316;2023-09-08T09:47:04;29.00;97.40
10660;DHT22;5378;53.206;13.316;2023-09-08T09:49:54;28.60;95.80
10660;DHT22;5378;53.206;13.316;2023-09-08T09:52:44;28.20;96.40
10660;DHT22;5378;53.206;13.316;2023-09-08T09:55:36;27.80;97.60
10660;DHT22;5378;53.206;13.316;2023-09-08T09:58:25;27.40;98.40
10660;DHT22;5378;53.206;13.316;2023-09-08T10:01:13;27.20;97.20
10660;DHT22;5378;53.206;13.316;2023-09-08T10:04:01;26.90;98.20
10660;DHT22;5378;53.206;13.316;2023-09-08T10:06:51;26.80;98.70
10660;DHT22;5378;53.206;13.316;2023-09-08T10:09:38;26.70;99.90
10660;DHT22;5378;53.206;13.316;2023-09-08T10:12:26;26.70;99.10
10660;DHT22;5378;53.206;13.316;2023-09-08T10:15:19;26.70;99.40
10660;DHT22;5378;53.206;13.316;2023-09-08T10:18:08;26.70;99.90
10660;DHT22;5378;53.206;13.316;2023-09-08T10:20:58;26.60;99.90
10660;DHT22;5378;53.206;13.316;2023-09-08T10:23:51;26.50;99.90
10660;DHT22;5378;53.206;13.316;2023-09-08T10:26:44;26.50;99.80
10660;DHT22;5378;53.206;13.316;2023-09-08T10:29:32;26.60;99.90
10660;DHT22;5378;53.206;13.316;2023-09-08T10:32:20;26.60;99.80
10660;DHT22;5378;53.206;13.316;2023-09-08T10:35:09;26.70;99.90
10660;DHT22;5378;53.206;13.316;2023-09-08T10:38:21;26.80;99.90
10660;DHT22;5378;53.206;13.316;2023-09-08T10:41:28;26.80;99.80
10660;DHT22;5378;53.206;13.316;2023-09-08T10:44:18;26.80;99.90
10660;DHT22;5378;53.206;13.316;2023-09-08T10:47:05;26.80;99.90
10660;DHT22;5378;53.206;13.316;2023-09-08T10:49:52;26.80;99.90
10660;DHT22;5378;53.206;13.316;2023-09-08T10:52:45;26.80;99.50
10660;DHT22;5378;53.206;13.316;2023-09-08T10:55:40;26.90;99.70
10660;DHT22;5378;53.206;13.316;2023-09-08T10:58:33;26.90;99.90
10660;DHT22;5378;53.206;13.316;2023-09-08T11:01:22;26.90;99.90
10660;DHT22;5378;53.206;13.316;2023-09-08T11:04:13;27.00;99.90
10660;DHT22;5378;53.206;13.316;2023-09-08T11:07:05;27.00;99.90
10660;DHT22;5378;53.206;13.316;2023-09-08T11:09:52;27.00;99.50
10660;DHT22;5378;53.206;13.316;2023-09-08T11:12:40;27.10;99.90
10660;DHT22;5378;53.206;13.316;2023-09-08T11:15:28;27.00;99.60
10660;DHT22;5378;53.206;13.316;2023-09-08T11:18:16;27.00;99.90
10660;DHT22;5378;53.206;13.316;2023-09-08T11:21:07;27.10;99.60
10660;DHT22;5378;53.206;13.316;2023-09-08T11:23:54;27.10;99.90
10660;DHT22;5378;53.206;13.316;2023-09-08T11:26:41;27.00;98.90
10660;DHT22;5378;53.206;13.316;2023-09-08T11:29:32;27.10;99.60
10660;DHT22;5378;53.206;13.316;2023-09-08T11:32:21;27.10;98.30
10660;DHT22;5378;53.206;13.316;2023-09-08T11:35:10;27.10;99.20
10660;DHT22;5378;53.206;13.316;2023-09-08T11:38:00;27.20;99.90
10660;DHT22;5378;53.206;13.316;2023-09-08T11:40:50;27.20;99.90
10660;DHT22;5378;53.206;13.316;2023-09-08T11:43:38;27.20;99.80
10660;DHT22;5378;53.206;13.316;2023-09-08T11:46:25;27.20;98.20
10660;DHT22;5378;53.206;13.316;2023-09-08T11:49:14;27.30;98.60
10660;DHT22;5378;53.206;13.316;2023-09-08T11:52:05;27.40;97.90
10660;DHT22;5378;53.206;13.316;2023-09-08T11:54:53;27.40;99.90
10660;DHT22;5378;53.206;13.316;2023-09-08T11:57:47;27.40;99.10
10660;DHT22;5378;53.206;13.316;2023-09-08T12:00:35;27.50;99.90
10660;DHT22;5378;53.206;13.316;2023-09-08T12:03:23;27.60;99.40
10660;DHT22;5378;53.206;13.316;2023-09-08T12:06:12;27.80;97.50
10660;DHT22;5378;53.206;13.316;2023-09-08T12:09:00;27.90;98.50
10660;DHT22;5378;53.206;13.316;2023-09-08T12:11:48;27.90;98.80
10660;DHT22;5378;53.206;13.316;2023-09-08T12:14:40;27.90;99.10
10660;DHT22;5378;53.206;13.316;2023-09-08T12:17:28;27.90;99.20
10660;DHT22;5378;53.206;13.316;2023-09-08T12:20:16;27.90;99.10
10660;DHT22;5378;53.206;13.316;2023-09-08T12:23:06;27.90;99.90
10660;DHT22;5378;53.206;13.316;2023-09-08T12:25:57;28.00;98.80
10660;DHT22;5378;53.206;13.316;2023-09-08T12:28:44;27.90;97.90
10660;DHT22;5378;53.206;13.316;2023-09-08T12:31:32;27.90;97.20
10660;DHT22;5378;53.206;13.316;2023-09-08T12:34:19;27.90;97.10
10660;DHT22;5378;53.206;13.316;2023-09-08T12:37:06;27.80;96.90
10660;DHT22;5378;53.206;13.316;2023-09-08T12:39:57;27.90;97.10
10660;DHT22;5378;53.206;13.316;2023-09-08T12:42:46;28.00;96.60
10660;DHT22;5378;53.206;13.316;2023-09-08T12:45:34;28.10;96.60
10660;DHT22;5378;53.206;13.316;2023-09-08T12:48:21;28.20;95.90
10660;DHT22;5378;53.206;13.316;2023-09-08T12:51:09;28.20;95.60
10660;DHT22;5378;53.206;13.316;2023-09-08T12:53:56;28.20;96.00
10660;DHT22;5378;53.206;13.316;2023-09-08T12:56:44;28.20;96.20
10660;DHT22;5378;53.206;13.316;2023-09-08T12:59:32;28.10;96.80
10660;DHT22;5378;53.206;13.316;2023-09-08T13:02:19;28.10;96.20
10660;DHT22;5378;53.206;13.316;2023-09-08T13:05:07;28.00;96.10
10660;DHT22;5378;53.206;13.316;2023-09-08T13:07:55;28.00;96.60
10660;DHT22;5378;53.206;13.316;2023-09-08T13:10:42;28.10;96.30
10660;DHT22;5378;53.206;13.316;2023-09-08T13:13:30;28.10;95.00
10660;DHT22;5378;53.206;13.316;2023-09-08T13:16:18;28.20;95.80
10660;DHT22;5378;53.206;13.316;2023-09-08T13:19:05;28.30;95.90
10660;DHT22;5378;53.206;13.316;2023-09-08T13:21:52;28.20;95.80
10660;DHT22;5378;53.206;13.316;2023-09-08T13:24:39;28.20;94.90
10660;DHT22;5378;53.206;13.316;2023-09-08T13:27:26;28.10;95.80
10660;DHT22;5378;53.206;13.316;2023-09-08T13:30:16;28.10;95.70
10660;DHT22;5378;53.206;13.316;2023-09-08T13:33:05;28.10;96.50
10660;DHT22;5378;53.206;13.316;2023-09-08T13:35:53;28.20;95.70
10660;DHT22;5378;53.206;13.316;2023-09-08T13:38:40;28.30;96.10
10660;DHT22;5378;53.206;13.316;2023-09-08T13:41:46;28.30;95.90
10660;DHT22;5378;53.206;13.316;2023-09-08T13:44:33;28.40;94.90
10660;DHT22;5378;53.206;13.316;2023-09-08T13:47:22;28.30;95.40
10660;DHT22;5378;53.206;13.316;2023-09-08T13:50:09;28.30;94.80
10660;DHT22;5378;53.206;13.316;2023-09-08T13:52:58;28.30;94.40
10660;DHT22;5378;53.206;13.316;2023-09-08T13:55:45;28.30;95.00
10660;DHT22;5378;53.206;13.316;2023-09-08T13:58:35;28.20;95.70
10660;DHT22;5378;53.206;13.316;2023-09-08T14:01:33;28.10;95.30
10660;DHT22;5378;53.206;13.316;2023-09-08T14:04:23;28.20;95.30
10660;DHT22;5378;53.206;13.316;2023-09-08T14:07:11;28.10;95.10
10660;DHT22;5378;53.206;13.316;2023-09-08T14:10:02;28.10;95.20
10660;DHT22;5378;53.206;13.316;2023-09-08T14:13:00;28.10;95.30
10660;DHT22;5378;53.206;13.316;2023-09-08T14:15:47;28.10;95.60
10660;DHT22;5378;53.206;13.316;2023-09-08T14:18:34;28.10;95.60
10660;DHT22;5378;53.206;13.316;2023-09-08T14:21:23;28.10;96.10
10660;DHT22;5378;53.206;13.316;2023-09-08T14:24:10;28.20;96.40
10660;DHT22;5378;53.206;13.316;2023-09-08T14:26:57;28.20;95.70
10660;DHT22;5378;53.206;13.316;2023-09-08T14:29:44;28.10;95.30
10660;DHT22;5378;53.206;13.316;2023-09-08T14:32:31;28.10;95.10
10660;DHT22;5378;53.206;13.316;2023-09-08T14:35:18;28.10;95.50
10660;DHT22;5378;53.206;13.316;2023-09-08T14:38:06;28.10;95.30
10660;DHT22;5378;53.206;13.316;2023-09-08T14:40:55;28.10;95.10
10660;DHT22;5378;53.206;13.316;2023-09-08T14:43:42;28.10;95.40
10660;DHT22;5378;53.206;13.316;2023-09-08T14:46:29;28.10;94.90
10660;DHT22;5378;53.206;13.316;2023-09-08T14:49:16;28.10;94.50
10660;DHT22;5378;53.206;13.316;2023-09-08T14:52:04;28.10;94.70
10660;DHT22;5378;53.206;13.316;2023-09-08T14:54:52;28.00;94.50
10660;DHT22;5378;53.206;13.316;2023-09-08T14:57:39;28.00;95.30
10660;DHT22;5378;53.206;13.316;2023-09-08T15:00:28;28.00;94.80
10660;DHT22;5378;53.206;13.316;2023-09-08T15:03:15;27.90;94.60
10660;DHT22;5378;53.206;13.316;2023-09-08T15:06:02;27.90;95.40
10660;DHT22;5378;53.206;13.316;2023-09-08T15:08:50;27.80;95.20
10660;DHT22;5378;53.206;13.316;2023-09-08T15:11:38;27.90;95.80
10660;DHT22;5378;53.206;13.316;2023-09-08T15:14:25;27.90;95.30
10660;DHT22;5378;53.206;13.316;2023-09-08T15:17:12;27.80;94.30
10660;DHT22;5378;53.206;13.316;2023-09-08T15:20:00;27.80;95.60
10660;DHT22;5378;53.206;13.316;2023-09-08T15:22:48;27.80;94.80
10660;DHT22;5378;53.206;13.316;2023-09-08T15:25:35;27.80;95.30
10660;DHT22;5378;53.206;13.316;2023-09-08T15:28:24;27.80;96.00
10660;DHT22;5378;53.206;13.316;2023-09-08T15:31:15;27.70;95.90
10660;DHT22;5378;53.206;13.316;2023-09-08T15:34:02;27.60;95.70
10660;DHT22;5378;53.206;13.316;2023-09-08T15:36:49;27.60;96.20
10660;DHT22;5378;53.206;13.316;2023-09-08T15:39:36;27.50;95.00
10660;DHT22;5378;53.206;13.316;2023-09-08T15:42:24;27.50;94.10
10660;DHT22;5378;53.206;13.316;2023-09-08T15:45:12;27.40;95.10
10660;DHT22;5378;53.206;13.316;2023-09-08T15:47:59;27.40;95.10
10660;DHT22;5378;53.206;13.316;2023-09-08T15:50:48;27.40;95.00
10660;DHT22;5378;53.206;13.316;2023-09-08T15:53:36;27.40;94.70
10660;DHT22;5378;53.206;13.316;2023-09-08T15:56:23;27.40;93.50
10660;DHT22;5378;53.206;13.316;2023-09-08T15:59:10;27.40;93.30
10660;DHT22;5378;53.206;13.316;2023-09-08T16:01:59;27.40;94.40
10660;DHT22;5378;53.206;13.316;2023-09-08T16:04:46;27.40;93.50
10660;DHT22;5378;53.206;13.316;2023-09-08T16:07:33;27.30;94.00
10660;DHT22;5378;53.206;13.316;2023-09-08T16:10:20;27.20;94.60
10660;DHT22;5378;53.206;13.316;2023-09-08T16:13:07;27.10;93.50
10660;DHT22;5378;53.206;13.316;2023-09-08T16:15:54;27.00;92.80
10660;DHT22;5378;53.206;13.316;2023-09-08T16:18:43;27.00;92.40
10660;DHT22;5378;53.206;13.316;2023-09-08T16:21:30;27.00;93.50
10660;DHT22;5378;53.206;13.316;2023-09-08T16:24:17;26.80;94.50
10660;DHT22;5378;53.206;13.316;2023-09-08T16:27:04;26.80;94.30
10660;DHT22;5378;53.206;13.316;2023-09-08T16:29:51;26.70;93.80
10660;DHT22;5378;53.206;13.316;2023-09-08T16:32:38;26.60;94.40
10660;DHT22;5378;53.206;13.316;2023-09-08T16:35:27;26.60;94.40
10660;DHT22;5378;53.206;13.316;2023-09-08T16:38:14;26.50;94.80
10660;DHT22;5378;53.206;13.316;2023-09-08T16:41:02;26.30;95.10
10660;DHT22;5378;53.206;13.316;2023-09-08T16:43:49;26.20;94.80
10660;DHT22;5378;53.206;13.316;2023-09-08T16:46:36;26.10;95.50
10660;DHT22;5378;53.206;13.316;2023-09-08T16:49:23;26.00;94.60
10660;DHT22;5378;53.206;13.316;2023-09-08T16:52:12;25.90;95.60
10660;DHT22;5378;53.206;13.316;2023-09-08T16:54:59;25.90;96.60
10660;DHT22;5378;53.206;13.316;2023-09-08T16:57:46;25.70;97.30
10660;DHT22;5378;53.206;13.316;2023-09-08T17:00:33;25.70;98.20
10660;DHT22;5378;53.206;13.316;2023-09-08T17:03:20;25.60;99.40
10660;DHT22;5378;53.206;13.316;2023-09-08T17:06:08;25.50;99.80
10660;DHT22;5378;53.206;13.316;2023-09-08T17:08:56;25.40;99.90
10660;DHT22;5378;53.206;13.316;2023-09-08T17:11:43;25.20;99.90
10660;DHT22;5378;53.206;13.316;2023-09-08T17:14:30;25.00;99.90
10660;DHT22;5378;53.206;13.316;2023-09-08T17:17:17;24.80;99.90
10660;DHT22;5378;53.206;13.316;2023-09-08T17:20:06;24.70;99.90
10660;DHT22;5378;53.206;13.316;2023-09-08T17:22:53;24.60;99.90
10660;DHT22;5378;53.206;13.316;2023-09-08T17:25:42;24.40;99.90
10660;DHT22;5378;53.206;13.316;2023-09-08T17:28:30;24.30;99.90
10660;DHT22;5378;53.206;13.316;2023-09-08T17:31:18;24.10;99.90
10660;DHT22;5378;53.206;13.316;2023-09-08T17:34:06;24.00;99.90
10660;DHT22;5378;53.206;13.316;2023-09-08T17:36:54;23.80;99.90
10660;DHT22;5378;53.206;13.316;2023-09-08T17:39:42;23.70;99.90
10660;DHT22;5378;53.206;13.316;2023-09-08T17:42:30;23.60;99.90